sensor_id;sensor_type;location;lat;lon;timestamp;P1;durP1;ratioP1;P2;durP2;ratioP2
11422;SDS011;5768;51.476;7.210;2023-03-04T00:04:23;7.43;;;2.93;;
11422;SDS011;5768;51.476;7.210;2023-03-04T00:09:26;10.27;;;3.20;;
11422;SDS011;5768;51.476;7.210;2023-03-04T00:14:28;9.60;;;3.40;;
11422;SDS011;5768;51.476;7.210;2023-03-04T00:19:30;6.60;;;3.00;;
11422;SDS011;5768;51.476;7.210;2023-03-04T00:24:35;9.10;;;3.30;;
11422;SDS011;5768;51.476;7.210;2023-03-04T00:29:38;8.73;;;3.00;;
11422;SDS011;5768;51.476;7.210;2023-03-04T00:34:40;11.00;;;3.27;;
11422;SDS011;5768;51.476;7.210;2023-03-04T00:39:43;10.93;;;3.47;;
11422;SDS011;5768;51.476;7.210;2023-03-04T00:44:45;11.73;;;3.00;;
11422;SDS011;5768;51.476;7.210;2023-03-04T00:49:48;9.27;;;3.30;;
11422;SDS011;5768;51.476;7.210;2023-03-04T00:54:51;8.43;;;3.10;;
11422;SDS011;5768;51.476;7.210;2023-03-04T00:59:54;8.90;;;3.13;;
11422;SDS011;5768;51.476;7.210;2023-03-04T01:04:56;13.53;;;3.40;;
11422;SDS011;5768;51.476;7.210;2023-03-04T01:09:59;9.87;;;3.03;;
11422;SDS011;5768;51.476;7.210;2023-03-04T01:15:02;8.80;;;2.70;;
11422;SDS011;5768;51.476;7.210;2023-03-04T01:20:06;15.00;;;3.60;;
11422;SDS011;5768;51.476;7.210;2023-03-04T01:25:11;10.17;;;3.33;;
11422;SDS011;5768;51.476;7.210;2023-03-04T01:30:13;11.23;;;3.83;;
11422;SDS011;5768;51.476;7.210;2023-03-04T01:35:15;8.97;;;3.00;;
11422;SDS011;5768;51.476;7.210;2023-03-04T01:40:19;13.03;;;3.63;;
11422;SDS011;5768;51.476;7.210;2023-03-04T01:45:21;10.60;;;3.40;;
11422;SDS011;5768;51.476;7.210;2023-03-04T01:50:26;14.13;;;3.50;;
11422;SDS011;5768;51.476;7.210;2023-03-04T01:55:34;10.93;;;3.20;;
11422;SDS011;5768;51.476;7.210;2023-03-04T02:00:37;10.67;;;3.60;;
11422;SDS011;5768;51.476;7.210;2023-03-04T02:05:41;13.60;;;3.57;;
11422;SDS011;5768;51.476;7.210;2023-03-04T02:10:48;8.17;;;2.80;;
11422;SDS011;5768;51.476;7.210;2023-03-04T02:15:51;9.77;;;2.83;;
11422;SDS011;5768;51.476;7.210;2023-03-04T02:20:55;9.87;;;3.20;;
11422;SDS011;5768;51.476;7.210;2023-03-04T02:26:13;11.73;;;3.30;;
11422;SDS011;5768;51.476;7.210;2023-03-04T02:31:21;9.73;;;3.00;;
11422;SDS011;5768;51.476;7.210;2023-03-04T02:36:27;9.17;;;2.80;;
11422;SDS011;5768;51.476;7.210;2023-03-04T02:41:32;12.97;;;3.70;;
11422;SDS011;5768;51.476;7.210;2023-03-04T02:46:35;10.73;;;4.30;;
11422;SDS011;5768;51.476;7.210;2023-03-04T02:51:37;9.63;;;3.30;;
11422;SDS011;5768;51.476;7.210;2023-03-04T02:56:44;5.70;;;2.53;;
11422;SDS011;5768;51.476;7.210;2023-03-04T03:01:47;7.77;;;3.03;;
11422;SDS011;5768;51.476;7.210;2023-03-04T03:06:50;12.67;;;3.40;;
11422;SDS011;5768;51.476;7.210;2023-03-04T03:11:53;12.70;;;3.30;;
11422;SDS011;5768;51.476;7.210;2023-03-04T03:16:55;10.43;;;2.90;;
11422;SDS011;5768;51.476;7.210;2023-03-04T03:21:57;11.23;;;3.03;;
11422;SDS011;5768;51.476;7.210;2023-03-04T03:27:01;8.30;;;2.40;;
11422;SDS011;5768;51.476;7.210;2023-03-04T03:32:03;8.63;;;2.80;;
11422;SDS011;5768;51.476;7.210;2023-03-04T03:37:05;12.20;;;3.30;;
11422;SDS011;5768;51.476;7.210;2023-03-04T03:42:09;9.80;;;2.90;;
11422;SDS011;5768;51.476;7.210;2023-03-04T03:47:11;10.77;;;3.10;;
11422;SDS011;5768;51.476;7.210;2023-03-04T03:52:13;7.10;;;2.50;;
11422;SDS011;5768;51.476;7.210;2023-03-04T03:57:17;10.13;;;2.13;;
11422;SDS011;5768;51.476;7.210;2023-03-04T04:02:19;7.97;;;2.17;;
11422;SDS011;5768;51.476;7.210;2023-03-04T04:07:21;8.37;;;2.40;;
11422;SDS011;5768;51.476;7.210;2023-03-04T04:12:24;9.37;;;2.80;;
11422;SDS011;5768;51.476;7.210;2023-03-04T04:17:26;11.20;;;2.70;;
11422;SDS011;5768;51.476;7.210;2023-03-04T04:22:29;7.63;;;2.57;;
11422;SDS011;5768;51.476;7.210;2023-03-04T04:27:32;10.27;;;2.90;;
11422;SDS011;5768;51.476;7.210;2023-03-04T04:32:34;10.33;;;2.67;;
11422;SDS011;5768;51.476;7.210;2023-03-04T04:37:36;8.10;;;2.57;;
11422;SDS011;5768;51.476;7.210;2023-03-04T04:42:39;6.20;;;2.00;;
11422;SDS011;5768;51.476;7.210;2023-03-04T04:47:42;11.87;;;2.83;;
11422;SDS011;5768;51.476;7.210;2023-03-04T04:52:44;7.30;;;2.20;;
11422;SDS011;5768;51.476;7.210;2023-03-04T04:57:47;9.93;;;2.60;;
11422;SDS011;5768;51.476;7.210;2023-03-04T05:02:49;9.57;;;1.90;;
11422;SDS011;5768;51.476;7.210;2023-03-04T05:07:52;7.67;;;1.97;;
11422;SDS011;5768;51.476;7.210;2023-03-04T05:12:55;7.17;;;1.90;;
11422;SDS011;5768;51.476;7.210;2023-03-04T05:17:57;5.93;;;2.00;;
11422;SDS011;5768;51.476;7.210;2023-03-04T05:22:59;7.90;;;2.17;;
11422;SDS011;5768;51.476;7.210;2023-03-04T05:28:02;8.27;;;2.07;;
11422;SDS011;5768;51.476;7.210;2023-03-04T05:33:06;6.00;;;1.80;;
11422;SDS011;5768;51.476;7.210;2023-03-04T05:38:10;7.17;;;2.50;;
11422;SDS011;5768;51.476;7.210;2023-03-04T05:43:16;7.77;;;2.30;;
11422;SDS011;5768;51.476;7.210;2023-03-04T05:48:18;4.97;;;1.53;;
11422;SDS011;5768;51.476;7.210;2023-03-04T05:53:20;6.83;;;1.87;;
11422;SDS011;5768;51.476;7.210;2023-03-04T05:58:24;8.33;;;1.97;;
11422;SDS011;5768;51.476;7.210;2023-03-04T06:03:26;9.37;;;2.00;;
11422;SDS011;5768;51.476;7.210;2023-03-04T06:08:28;8.03;;;2.00;;
11422;SDS011;5768;51.476;7.210;2023-03-04T06:13:32;11.90;;;2.43;;
11422;SDS011;5768;51.476;7.210;2023-03-04T06:18:34;5.30;;;1.90;;
11422;SDS011;5768;51.476;7.210;2023-03-04T06:23:37;6.03;;;1.90;;
11422;SDS011;5768;51.476;7.210;2023-03-04T06:28:40;7.83;;;2.00;;
11422;SDS011;5768;51.476;7.210;2023-03-04T06:33:43;8.57;;;2.10;;
11422;SDS011;5768;51.476;7.210;2023-03-04T06:38:45;6.53;;;2.17;;
11422;SDS011;5768;51.476;7.210;2023-03-04T06:43:48;5.43;;;2.10;;
11422;SDS011;5768;51.476;7.210;2023-03-04T06:48:53;7.33;;;2.30;;
11422;SDS011;5768;51.476;7.210;2023-03-04T06:53:57;6.57;;;2.00;;
11422;SDS011;5768;51.476;7.210;2023-03-04T06:59:00;6.07;;;2.10;;
11422;SDS011;5768;51.476;7.210;2023-03-04T07:04:02;7.30;;;2.03;;
11422;SDS011;5768;51.476;7.210;2023-03-04T07:09:05;5.27;;;1.57;;
11422;SDS011;5768;51.476;7.210;2023-03-04T07:14:08;4.43;;;1.80;;
11422;SDS011;5768;51.476;7.210;2023-03-04T07:19:11;6.00;;;1.70;;
11422;SDS011;5768;51.476;7.210;2023-03-04T07:24:13;6.00;;;1.80;;
11422;SDS011;5768;51.476;7.210;2023-03-04T07:29:16;4.37;;;1.30;;
11422;SDS011;5768;51.476;7.210;2023-03-04T07:34:18;2.53;;;1.30;;
11422;SDS011;5768;51.476;7.210;2023-03-04T07:39:21;5.47;;;1.63;;
11422;SDS011;5768;51.476;7.210;2023-03-04T07:44:24;7.80;;;1.87;;
11422;SDS011;5768;51.476;7.210;2023-03-04T07:49:26;3.97;;;1.63;;
11422;SDS011;5768;51.476;7.210;2023-03-04T07:54:28;4.33;;;1.67;;
11422;SDS011;5768;51.476;7.210;2023-03-04T07:59:32;6.13;;;2.03;;
11422;SDS011;5768;51.476;7.210;2023-03-04T08:04:37;4.80;;;1.67;;
11422;SDS011;5768;51.476;7.210;2023-03-04T08:09:39;3.97;;;1.73;;
11422;SDS011;5768;51.476;7.210;2023-03-04T08:14:43;7.00;;;1.97;;
11422;SDS011;5768;51.476;7.210;2023-03-04T08:19:46;5.53;;;2.03;;
11422;SDS011;5768;51.476;7.210;2023-03-04T08:24:48;6.47;;;2.20;;
11422;SDS011;5768;51.476;7.210;2023-03-04T08:29:51;6.70;;;2.63;;
11422;SDS011;5768;51.476;7.210;2023-03-04T08:34:53;7.13;;;2.57;;
11422;SDS011;5768;51.476;7.210;2023-03-04T08:39:56;4.30;;;2.13;;
11422;SDS011;5768;51.476;7.210;2023-03-04T08:44:59;7.27;;;2.20;;
11422;SDS011;5768;51.476;7.210;2023-03-04T08:50:01;5.27;;;2.17;;
11422;SDS011;5768;51.476;7.210;2023-03-04T08:55:05;8.47;;;3.40;;
11422;SDS011;5768;51.476;7.210;2023-03-04T09:00:10;7.13;;;2.87;;
11422;SDS011;5768;51.476;7.210;2023-03-04T09:05:14;8.77;;;2.90;;
11422;SDS011;5768;51.476;7.210;2023-03-04T09:10:16;7.60;;;3.30;;
11422;SDS011;5768;51.476;7.210;2023-03-04T09:15:19;5.50;;;2.40;;
11422;SDS011;5768;51.476;7.210;2023-03-04T09:20:21;3.20;;;2.63;;
11422;SDS011;5768;51.476;7.210;2023-03-04T09:25:24;6.97;;;3.30;;
11422;SDS011;5768;51.476;7.210;2023-03-04T09:30:27;4.43;;;2.63;;
11422;SDS011;5768;51.476;7.210;2023-03-04T09:35:29;7.80;;;3.40;;
11422;SDS011;5768;51.476;7.210;2023-03-04T09:40:32;6.10;;;3.20;;
11422;SDS011;5768;51.476;7.210;2023-03-04T09:45:44;2.83;;;2.33;;
11422;SDS011;5768;51.476;7.210;2023-03-04T09:50:58;6.00;;;4.20;;
11422;SDS011;5768;51.476;7.210;2023-03-04T09:56:15;7.37;;;4.80;;
11422;SDS011;5768;51.476;7.210;2023-03-04T10:01:21;7.63;;;4.00;;
11422;SDS011;5768;51.476;7.210;2023-03-04T10:06:30;6.50;;;3.77;;
11422;SDS011;5768;51.476;7.210;2023-03-04T10:11:34;9.50;;;4.97;;
11422;SDS011;5768;51.476;7.210;2023-03-04T10:16:44;7.73;;;5.07;;
11422;SDS011;5768;51.476;7.210;2023-03-04T10:21:52;7.20;;;4.70;;
11422;SDS011;5768;51.476;7.210;2023-03-04T10:26:58;8.17;;;4.93;;
11422;SDS011;5768;51.476;7.210;2023-03-04T10:32:09;6.53;;;4.90;;
11422;SDS011;5768;51.476;7.210;2023-03-04T10:37:16;7.37;;;4.97;;
11422;SDS011;5768;51.476;7.210;2023-03-04T10:42:22;8.13;;;5.10;;
11422;SDS011;5768;51.476;7.210;2023-03-04T10:47:37;5.63;;;4.67;;
11422;SDS011;5768;51.476;7.210;2023-03-04T10:52:39;8.30;;;4.90;;
11422;SDS011;5768;51.476;7.210;2023-03-04T10:57:50;5.83;;;4.20;;
11422;SDS011;5768;51.476;7.210;2023-03-04T11:03:19;5.60;;;4.10;;
11422;SDS011;5768;51.476;7.210;2023-03-04T11:08:33;5.87;;;3.73;;
11422;SDS011;5768;51.476;7.210;2023-03-04T11:13:35;5.73;;;3.63;;
11422;SDS011;5768;51.476;7.210;2023-03-04T11:18:40;5.97;;;3.70;;
11422;SDS011;5768;51.476;7.210;2023-03-04T11:23:46;6.60;;;3.90;;
11422;SDS011;5768;51.476;7.210;2023-03-04T11:28:55;6.53;;;2.83;;
11422;SDS011;5768;51.476;7.210;2023-03-04T11:34:10;4.10;;;2.77;;
11422;SDS011;5768;51.476;7.210;2023-03-04T11:39:26;3.70;;;2.80;;
11422;SDS011;5768;51.476;7.210;2023-03-04T11:44:36;4.37;;;3.13;;
11422;SDS011;5768;51.476;7.210;2023-03-04T11:49:56;4.70;;;3.13;;
11422;SDS011;5768;51.476;7.210;2023-03-04T11:55:24;4.23;;;2.43;;
11422;SDS011;5768;51.476;7.210;2023-03-04T12:00:38;3.83;;;3.33;;
11422;SDS011;5768;51.476;7.210;2023-03-04T12:05:55;3.90;;;3.50;;
11422;SDS011;5768;51.476;7.210;2023-03-04T12:11:06;4.47;;;4.03;;
11422;SDS011;5768;51.476;7.210;2023-03-04T12:16:26;2.27;;;2.00;;
11422;SDS011;5768;51.476;7.210;2023-03-04T12:22:02;4.20;;;3.50;;
11422;SDS011;5768;51.476;7.210;2023-03-04T12:27:23;3.70;;;3.30;;
11422;SDS011;5768;51.476;7.210;2023-03-04T12:32:38;4.90;;;3.77;;
11422;SDS011;5768;51.476;7.210;2023-03-04T12:37:59;3.30;;;2.73;;
11422;SDS011;5768;51.476;7.210;2023-03-04T12:43:26;2.80;;;2.10;;
11422;SDS011;5768;51.476;7.210;2023-03-04T12:48:48;2.93;;;2.37;;
11422;SDS011;5768;51.476;7.210;2023-03-04T12:54:18;3.50;;;2.63;;
11422;SDS011;5768;51.476;7.210;2023-03-04T12:59:32;2.67;;;2.47;;
11422;SDS011;5768;51.476;7.210;2023-03-04T13:04:42;3.47;;;3.10;;
11422;SDS011;5768;51.476;7.210;2023-03-04T13:10:00;3.63;;;2.87;;
11422;SDS011;5768;51.476;7.210;2023-03-04T13:15:25;3.77;;;2.90;;
11422;SDS011;5768;51.476;7.210;2023-03-04T13:20:32;5.43;;;2.90;;
11422;SDS011;5768;51.476;7.210;2023-03-04T13:25:39;3.43;;;3.13;;
11422;SDS011;5768;51.476;7.210;2023-03-04T13:41:57;4.97;;;4.20;;
11422;SDS011;5768;51.476;7.210;2023-03-04T13:47:06;4.67;;;3.83;;
11422;SDS011;5768;51.476;7.210;2023-03-04T13:52:36;3.50;;;3.00;;
11422;SDS011;5768;51.476;7.210;2023-03-04T13:57:48;5.10;;;3.37;;
11422;SDS011;5768;51.476;7.210;2023-03-04T14:02:51;4.37;;;3.60;;
11422;SDS011;5768;51.476;7.210;2023-03-04T14:07:53;3.87;;;3.30;;
11422;SDS011;5768;51.476;7.210;2023-03-04T14:12:57;6.67;;;3.30;;
11422;SDS011;5768;51.476;7.210;2023-03-04T14:18:01;4.63;;;3.20;;
11422;SDS011;5768;51.476;7.210;2023-03-04T14:23:21;4.27;;;3.00;;
11422;SDS011;5768;51.476;7.210;2023-03-04T14:28:27;5.07;;;2.90;;
11422;SDS011;5768;51.476;7.210;2023-03-04T14:33:29;3.07;;;2.70;;
11422;SDS011;5768;51.476;7.210;2023-03-04T14:38:32;4.90;;;3.23;;
11422;SDS011;5768;51.476;7.210;2023-03-04T14:43:42;3.47;;;2.60;;
11422;SDS011;5768;51.476;7.210;2023-03-04T14:48:55;3.20;;;2.77;;
11422;SDS011;5768;51.476;7.210;2023-03-04T14:53:57;4.43;;;2.67;;
11422;SDS011;5768;51.476;7.210;2023-03-04T14:59:01;6.37;;;4.00;;
11422;SDS011;5768;51.476;7.210;2023-03-04T15:04:03;3.77;;;2.90;;
11422;SDS011;5768;51.476;7.210;2023-03-04T15:09:16;4.33;;;2.40;;
11422;SDS011;5768;51.476;7.210;2023-03-04T15:14:43;3.93;;;2.60;;
11422;SDS011;5768;51.476;7.210;2023-03-04T15:19:56;4.53;;;2.10;;
11422;SDS011;5768;51.476;7.210;2023-03-04T15:25:13;5.63;;;1.93;;
11422;SDS011;5768;51.476;7.210;2023-03-04T15:30:19;3.90;;;1.60;;
11422;SDS011;5768;51.476;7.210;2023-03-04T15:35:26;6.53;;;2.00;;
11422;SDS011;5768;51.476;7.210;2023-03-04T15:40:32;6.10;;;1.70;;
11422;SDS011;5768;51.476;7.210;2023-03-04T15:45:39;3.50;;;1.80;;
11422;SDS011;5768;51.476;7.210;2023-03-04T15:50:43;4.83;;;2.00;;
11422;SDS011;5768;51.476;7.210;2023-03-04T15:55:49;5.97;;;2.00;;
11422;SDS011;5768;51.476;7.210;2023-03-04T16:00:53;4.53;;;1.90;;
11422;SDS011;5768;51.476;7.210;2023-03-04T16:05:55;3.73;;;1.90;;
11422;SDS011;5768;51.476;7.210;2023-03-04T16:10:58;3.50;;;1.60;;
11422;SDS011;5768;51.476;7.210;2023-03-04T16:16:01;4.97;;;1.80;;
11422;SDS011;5768;51.476;7.210;2023-03-04T16:21:04;2.70;;;1.20;;
11422;SDS011;5768;51.476;7.210;2023-03-04T16:26:16;3.17;;;1.37;;
11422;SDS011;5768;51.476;7.210;2023-03-04T16:31:23;3.80;;;1.60;;
11422;SDS011;5768;51.476;7.210;2023-03-04T16:36:25;3.23;;;1.33;;
11422;SDS011;5768;51.476;7.210;2023-03-04T16:41:29;3.30;;;1.20;;
11422;SDS011;5768;51.476;7.210;2023-03-04T16:46:33;2.17;;;1.20;;
11422;SDS011;5768;51.476;7.210;2023-03-04T16:51:38;4.47;;;1.63;;
11422;SDS011;5768;51.476;7.210;2023-03-04T16:56:43;2.03;;;1.20;;
11422;SDS011;5768;51.476;7.210;2023-03-04T17:01:47;6.00;;;1.97;;
11422;SDS011;5768;51.476;7.210;2023-03-04T17:06:49;3.73;;;1.50;;
11422;SDS011;5768;51.476;7.210;2023-03-04T17:11:52;5.90;;;1.90;;
11422;SDS011;5768;51.476;7.210;2023-03-04T17:16:57;4.87;;;1.80;;
11422;SDS011;5768;51.476;7.210;2023-03-04T17:22:00;3.93;;;1.60;;
11422;SDS011;5768;51.476;7.210;2023-03-04T17:27:03;4.47;;;1.70;;
11422;SDS011;5768;51.476;7.210;2023-03-04T17:32:06;4.20;;;1.90;;
11422;SDS011;5768;51.476;7.210;2023-03-04T17:37:09;5.23;;;1.93;;
11422;SDS011;5768;51.476;7.210;2023-03-04T17:42:11;3.90;;;1.57;;
11422;SDS011;5768;51.476;7.210;2023-03-04T17:47:14;5.77;;;1.77;;
11422;SDS011;5768;51.476;7.210;2023-03-04T17:52:16;5.47;;;1.80;;
11422;SDS011;5768;51.476;7.210;2023-03-04T17:57:22;6.00;;;1.80;;
11422;SDS011;5768;51.476;7.210;2023-03-04T18:02:26;6.50;;;2.20;;
11422;SDS011;5768;51.476;7.210;2023-03-04T18:07:28;4.80;;;1.60;;
11422;SDS011;5768;51.476;7.210;2023-03-04T18:12:30;5.33;;;1.73;;
11422;SDS011;5768;51.476;7.210;2023-03-04T18:17:34;7.37;;;2.23;;
11422;SDS011;5768;51.476;7.210;2023-03-04T18:22:36;8.27;;;2.80;;
11422;SDS011;5768;51.476;7.210;2023-03-04T18:27:40;6.23;;;2.50;;
11422;SDS011;5768;51.476;7.210;2023-03-04T18:32:45;10.40;;;2.03;;
11422;SDS011;5768;51.476;7.210;2023-03-04T18:37:47;6.00;;;1.90;;
11422;SDS011;5768;51.476;7.210;2023-03-04T18:42:50;6.30;;;2.37;;
11422;SDS011;5768;51.476;7.210;2023-03-04T18:47:53;8.83;;;2.63;;
11422;SDS011;5768;51.476;7.210;2023-03-04T18:52:56;6.40;;;2.20;;
11422;SDS011;5768;51.476;7.210;2023-03-04T18:57:59;8.40;;;2.40;;
11422;SDS011;5768;51.476;7.210;2023-03-04T19:03:04;9.30;;;2.50;;
11422;SDS011;5768;51.476;7.210;2023-03-04T19:08:10;5.53;;;2.30;;
11422;SDS011;5768;51.476;7.210;2023-03-04T19:13:12;4.93;;;1.90;;
11422;SDS011;5768;51.476;7.210;2023-03-04T19:18:18;9.30;;;2.40;;
11422;SDS011;5768;51.476;7.210;2023-03-04T19:23:20;6.03;;;2.20;;
11422;SDS011;5768;51.476;7.210;2023-03-04T19:28:23;4.20;;;1.80;;
11422;SDS011;5768;51.476;7.210;2023-03-04T19:33:27;5.87;;;1.60;;
11422;SDS011;5768;51.476;7.210;2023-03-04T19:38:29;5.47;;;1.53;;
11422;SDS011;5768;51.476;7.210;2023-03-04T19:43:32;3.60;;;1.63;;
11422;SDS011;5768;51.476;7.210;2023-03-04T19:48:37;4.90;;;1.73;;
11422;SDS011;5768;51.476;7.210;2023-03-04T19:53:40;3.67;;;1.83;;
11422;SDS011;5768;51.476;7.210;2023-03-04T19:58:43;5.80;;;2.10;;
11422;SDS011;5768;51.476;7.210;2023-03-04T20:03:47;9.00;;;2.00;;
11422;SDS011;5768;51.476;7.210;2023-03-04T20:08:49;8.03;;;1.93;;
11422;SDS011;5768;51.476;7.210;2023-03-04T20:13:55;4.90;;;1.77;;
11422;SDS011;5768;51.476;7.210;2023-03-04T20:19:02;5.33;;;2.27;;
11422;SDS011;5768;51.476;7.210;2023-03-04T20:24:07;6.53;;;1.90;;
11422;SDS011;5768;51.476;7.210;2023-03-04T20:29:10;5.20;;;2.37;;
11422;SDS011;5768;51.476;7.210;2023-03-04T20:34:13;6.07;;;2.10;;
11422;SDS011;5768;51.476;7.210;2023-03-04T20:39:15;6.87;;;1.83;;
11422;SDS011;5768;51.476;7.210;2023-03-04T20:44:17;4.40;;;1.90;;
11422;SDS011;5768;51.476;7.210;2023-03-04T20:49:22;6.00;;;2.00;;
11422;SDS011;5768;51.476;7.210;2023-03-04T20:54:27;4.00;;;1.83;;
11422;SDS011;5768;51.476;7.210;2023-03-04T20:59:30;4.10;;;2.27;;
11422;SDS011;5768;51.476;7.210;2023-03-04T21:04:35;5.67;;;2.03;;
11422;SDS011;5768;51.476;7.210;2023-03-04T21:09:40;8.33;;;2.70;;
11422;SDS011;5768;51.476;7.210;2023-03-04T21:14:43;6.67;;;2.20;;
11422;SDS011;5768;51.476;7.210;2023-03-04T21:19:47;4.23;;;2.23;;
11422;SDS011;5768;51.476;7.210;2023-03-04T21:24:49;7.47;;;2.13;;
11422;SDS011;5768;51.476;7.210;2023-03-04T21:29:51;7.73;;;2.43;;
11422;SDS011;5768;51.476;7.210;2023-03-04T21:34:55;6.43;;;2.30;;
11422;SDS011;5768;51.476;7.210;2023-03-04T21:39:57;4.50;;;1.93;;
11422;SDS011;5768;51.476;7.210;2023-03-04T21:45:00;6.00;;;2.17;;
11422;SDS011;5768;51.476;7.210;2023-03-04T21:50:04;4.77;;;2.07;;
11422;SDS011;5768;51.476;7.210;2023-03-04T21:55:07;4.80;;;1.80;;
11422;SDS011;5768;51.476;7.210;2023-03-04T22:00:11;6.83;;;2.10;;
11422;SDS011;5768;51.476;7.210;2023-03-04T22:05:16;5.00;;;2.17;;
11422;SDS011;5768;51.476;7.210;2023-03-04T22:10:18;6.30;;;2.00;;
11422;SDS011;5768;51.476;7.210;2023-03-04T22:15:20;6.60;;;2.50;;
11422;SDS011;5768;51.476;7.210;2023-03-04T22:20:24;6.53;;;2.27;;
11422;SDS011;5768;51.476;7.210;2023-03-04T22:25:26;5.50;;;2.13;;
11422;SDS011;5768;51.476;7.210;2023-03-04T22:30:29;4.73;;;2.43;;
11422;SDS011;5768;51.476;7.210;2023-03-04T22:35:32;6.97;;;2.00;;
11422;SDS011;5768;51.476;7.210;2023-03-04T22:40:39;6.53;;;2.33;;
11422;SDS011;5768;51.476;7.210;2023-03-04T22:45:41;5.67;;;2.00;;
11422;SDS011;5768;51.476;7.210;2023-03-04T22:50:45;3.50;;;2.00;;
11422;SDS011;5768;51.476;7.210;2023-03-04T22:55:47;5.97;;;2.00;;
11422;SDS011;5768;51.476;7.210;2023-03-04T23:00:56;6.93;;;2.60;;
11422;SDS011;5768;51.476;7.210;2023-03-04T23:06:00;6.90;;;2.30;;
11422;SDS011;5768;51.476;7.210;2023-03-04T23:11:07;4.10;;;2.00;;
11422;SDS011;5768;51.476;7.210;2023-03-04T23:16:12;4.47;;;1.70;;
11422;SDS011;5768;51.476;7.210;2023-03-04T23:21:18;3.63;;;1.90;;
11422;SDS011;5768;51.476;7.210;2023-03-04T23:26:24;5.83;;;2.30;;
11422;SDS011;5768;51.476;7.210;2023-03-04T23:31:31;7.50;;;3.20;;
11422;SDS011;5768;51.476;7.210;2023-03-04T23:36:36;6.93;;;2.83;;
11422;SDS011;5768;51.476;7.210;2023-03-04T23:41:38;5.97;;;2.47;;
11422;SDS011;5768;51.476;7.210;2023-03-04T23:46:40;7.57;;;2.70;;
11422;SDS011;5768;51.476;7.210;2023-03-04T23:51:44;7.10;;;1.63;;
11422;SDS011;5768;51.476;7.210;2023-03-04T23:56:46;6.67;;;2.70;;
